sensor_id;sensor_type;location;lat;lon;timestamp;P1;durP1;ratioP1;P2;durP2;ratioP2
11211;SDS011;5663;50.864;12.096;2023-04-25T00:01:21;4.93;;;3.80;;
11211;SDS011;5663;50.864;12.096;2023-04-25T00:03:49;4.77;;;4.27;;
11211;SDS011;5663;50.864;12.096;2023-04-25T00:06:17;4.60;;;4.00;;
11211;SDS011;5663;50.864;12.096;2023-04-25T00:08:47;7.40;;;4.30;;
11211;SDS011;5663;50.864;12.096;2023-04-25T00:11:17;4.23;;;3.83;;
11211;SDS011;5663;50.864;12.096;2023-04-25T00:13:46;4.80;;;4.30;;
11211;SDS011;5663;50.864;12.096;2023-04-25T00:16:16;6.13;;;4.30;;
11211;SDS011;5663;50.864;12.096;2023-04-25T00:18:44;6.63;;;3.73;;
11211;SDS011;5663;50.864;12.096;2023-04-25T00:21:17;7.10;;;4.03;;
11211;SDS011;5663;50.864;12.096;2023-04-25T00:23:45;5.37;;;4.00;;
11211;SDS011;5663;50.864;12.096;2023-04-25T00:26:13;5.37;;;3.87;;
11211;SDS011;5663;50.864;12.096;2023-04-25T00:28:41;6.30;;;4.10;;
11211;SDS011;5663;50.864;12.096;2023-04-25T00:31:10;4.53;;;4.13;;
11211;SDS011;5663;50.864;12.096;2023-04-25T00:33:39;6.73;;;4.83;;
11211;SDS011;5663;50.864;12.096;2023-04-25T00:36:07;6.77;;;4.80;;
11211;SDS011;5663;50.864;12.096;2023-04-25T00:38:37;5.20;;;3.90;;
11211;SDS011;5663;50.864;12.096;2023-04-25T00:41:05;5.33;;;4.03;;
11211;SDS011;5663;50.864;12.096;2023-04-25T00:43:33;7.63;;;4.43;;
11211;SDS011;5663;50.864;12.096;2023-04-25T00:46:03;6.67;;;4.77;;
11211;SDS011;5663;50.864;12.096;2023-04-25T00:48:33;5.40;;;4.33;;
11211;SDS011;5663;50.864;12.096;2023-04-25T00:51:02;6.20;;;4.60;;
11211;SDS011;5663;50.864;12.096;2023-04-25T00:53:30;8.97;;;4.27;;
11211;SDS011;5663;50.864;12.096;2023-04-25T00:55:59;8.13;;;4.90;;
11211;SDS011;5663;50.864;12.096;2023-04-25T00:58:28;7.37;;;5.13;;
11211;SDS011;5663;50.864;12.096;2023-04-25T01:00:56;7.03;;;5.03;;
11211;SDS011;5663;50.864;12.096;2023-04-25T01:03:24;7.37;;;4.67;;
11211;SDS011;5663;50.864;12.096;2023-04-25T01:05:56;7.33;;;5.23;;
11211;SDS011;5663;50.864;12.096;2023-04-25T01:08:24;7.30;;;4.93;;
11211;SDS011;5663;50.864;12.096;2023-04-25T01:10:52;8.50;;;5.30;;
11211;SDS011;5663;50.864;12.096;2023-04-25T01:13:20;9.03;;;5.20;;
11211;SDS011;5663;50.864;12.096;2023-04-25T01:15:48;8.53;;;5.27;;
11211;SDS011;5663;50.864;12.096;2023-04-25T01:18:16;8.93;;;5.30;;
11211;SDS011;5663;50.864;12.096;2023-04-25T01:20:45;9.50;;;5.97;;
11211;SDS011;5663;50.864;12.096;2023-04-25T01:23:15;7.37;;;5.57;;
11211;SDS011;5663;50.864;12.096;2023-04-25T01:25:44;8.77;;;4.80;;
11211;SDS011;5663;50.864;12.096;2023-04-25T01:28:12;7.47;;;5.50;;
11211;SDS011;5663;50.864;12.096;2023-04-25T01:30:41;8.90;;;5.57;;
11211;SDS011;5663;50.864;12.096;2023-04-25T01:33:10;9.87;;;5.50;;
11211;SDS011;5663;50.864;12.096;2023-04-25T01:35:40;7.50;;;5.60;;
11211;SDS011;5663;50.864;12.096;2023-04-25T01:38:09;8.77;;;6.17;;
11211;SDS011;5663;50.864;12.096;2023-04-25T01:40:40;7.67;;;6.23;;
11211;SDS011;5663;50.864;12.096;2023-04-25T01:43:08;10.57;;;5.93;;
11211;SDS011;5663;50.864;12.096;2023-04-25T01:45:43;7.57;;;5.83;;
11211;SDS011;5663;50.864;12.096;2023-04-25T01:48:11;7.07;;;5.83;;
11211;SDS011;5663;50.864;12.096;2023-04-25T01:50:42;7.83;;;5.27;;
11211;SDS011;5663;50.864;12.096;2023-04-25T01:53:14;7.53;;;5.97;;
11211;SDS011;5663;50.864;12.096;2023-04-25T01:55:45;12.20;;;6.47;;
11211;SDS011;5663;50.864;12.096;2023-04-25T01:58:15;9.83;;;6.30;;
11211;SDS011;5663;50.864;12.096;2023-04-25T02:00:47;6.63;;;4.90;;
11211;SDS011;5663;50.864;12.096;2023-04-25T02:03:16;9.30;;;6.27;;
11211;SDS011;5663;50.864;12.096;2023-04-25T02:05:43;8.43;;;5.73;;
11211;SDS011;5663;50.864;12.096;2023-04-25T02:08:15;8.07;;;5.70;;
11211;SDS011;5663;50.864;12.096;2023-04-25T02:10:51;7.33;;;5.53;;
11211;SDS011;5663;50.864;12.096;2023-04-25T02:13:19;7.20;;;5.67;;
11211;SDS011;5663;50.864;12.096;2023-04-25T02:15:47;8.20;;;5.93;;
11211;SDS011;5663;50.864;12.096;2023-04-25T02:18:15;5.87;;;4.37;;
11211;SDS011;5663;50.864;12.096;2023-04-25T02:20:44;7.60;;;5.83;;
11211;SDS011;5663;50.864;12.096;2023-04-25T02:23:12;6.87;;;5.80;;
11211;SDS011;5663;50.864;12.096;2023-04-25T02:25:41;9.20;;;5.83;;
11211;SDS011;5663;50.864;12.096;2023-04-25T02:28:10;8.37;;;6.37;;
11211;SDS011;5663;50.864;12.096;2023-04-25T02:30:40;7.97;;;5.87;;
11211;SDS011;5663;50.864;12.096;2023-04-25T02:33:09;8.37;;;6.40;;
11211;SDS011;5663;50.864;12.096;2023-04-25T02:35:38;10.60;;;5.90;;
11211;SDS011;5663;50.864;12.096;2023-04-25T02:38:07;8.57;;;6.40;;
11211;SDS011;5663;50.864;12.096;2023-04-25T02:40:36;7.60;;;5.90;;
11211;SDS011;5663;50.864;12.096;2023-04-25T02:43:05;10.03;;;5.73;;
11211;SDS011;5663;50.864;12.096;2023-04-25T02:45:35;7.37;;;5.60;;
11211;SDS011;5663;50.864;12.096;2023-04-25T02:48:03;6.27;;;5.00;;
11211;SDS011;5663;50.864;12.096;2023-04-25T02:50:31;8.17;;;5.83;;
11211;SDS011;5663;50.864;12.096;2023-04-25T02:52:59;6.83;;;5.50;;
11211;SDS011;5663;50.864;12.096;2023-04-25T02:55:27;7.93;;;5.53;;
11211;SDS011;5663;50.864;12.096;2023-04-25T02:57:55;8.90;;;6.10;;
11211;SDS011;5663;50.864;12.096;2023-04-25T03:00:22;7.60;;;5.50;;
11211;SDS011;5663;50.864;12.096;2023-04-25T03:02:52;7.67;;;6.00;;
11211;SDS011;5663;50.864;12.096;2023-04-25T03:05:19;5.90;;;4.77;;
11211;SDS011;5663;50.864;12.096;2023-04-25T03:07:47;7.87;;;5.60;;
11211;SDS011;5663;50.864;12.096;2023-04-25T03:10:17;7.30;;;6.00;;
11211;SDS011;5663;50.864;12.096;2023-04-25T03:12:46;9.17;;;5.20;;
11211;SDS011;5663;50.864;12.096;2023-04-25T03:15:13;10.00;;;6.37;;
11211;SDS011;5663;50.864;12.096;2023-04-25T03:17:42;7.63;;;6.17;;
11211;SDS011;5663;50.864;12.096;2023-04-25T03:20:11;9.17;;;6.40;;
11211;SDS011;5663;50.864;12.096;2023-04-25T03:22:39;8.53;;;6.23;;
11211;SDS011;5663;50.864;12.096;2023-04-25T03:25:08;8.30;;;6.20;;
11211;SDS011;5663;50.864;12.096;2023-04-25T03:27:37;8.07;;;5.53;;
11211;SDS011;5663;50.864;12.096;2023-04-25T03:30:07;8.13;;;5.93;;
11211;SDS011;5663;50.864;12.096;2023-04-25T03:32:36;10.07;;;5.77;;
11211;SDS011;5663;50.864;12.096;2023-04-25T03:35:05;6.67;;;5.40;;
11211;SDS011;5663;50.864;12.096;2023-04-25T03:37:39;7.43;;;6.03;;
11211;SDS011;5663;50.864;12.096;2023-04-25T03:40:11;7.37;;;5.17;;
11211;SDS011;5663;50.864;12.096;2023-04-25T03:42:40;9.10;;;6.00;;
11211;SDS011;5663;50.864;12.096;2023-04-25T03:45:09;9.47;;;5.80;;
11211;SDS011;5663;50.864;12.096;2023-04-25T03:47:37;9.43;;;6.23;;
11211;SDS011;5663;50.864;12.096;2023-04-25T03:50:05;10.83;;;6.37;;
11211;SDS011;5663;50.864;12.096;2023-04-25T03:52:34;8.67;;;6.27;;
11211;SDS011;5663;50.864;12.096;2023-04-25T03:55:04;10.03;;;5.90;;
11211;SDS011;5663;50.864;12.096;2023-04-25T03:57:33;9.10;;;5.70;;
11211;SDS011;5663;50.864;12.096;2023-04-25T04:00:01;7.23;;;5.57;;
11211;SDS011;5663;50.864;12.096;2023-04-25T04:02:29;6.67;;;5.67;;
11211;SDS011;5663;50.864;12.096;2023-04-25T04:04:59;6.13;;;5.37;;
11211;SDS011;5663;50.864;12.096;2023-04-25T04:07:29;8.57;;;5.67;;
11211;SDS011;5663;50.864;12.096;2023-04-25T04:09:58;6.13;;;4.97;;
11211;SDS011;5663;50.864;12.096;2023-04-25T04:12:28;9.03;;;6.13;;
11211;SDS011;5663;50.864;12.096;2023-04-25T04:14:55;6.07;;;5.47;;
11211;SDS011;5663;50.864;12.096;2023-04-25T04:17:23;10.40;;;5.63;;
11211;SDS011;5663;50.864;12.096;2023-04-25T04:19:51;7.83;;;5.33;;
11211;SDS011;5663;50.864;12.096;2023-04-25T04:22:19;11.87;;;6.27;;
11211;SDS011;5663;50.864;12.096;2023-04-25T04:24:47;7.17;;;6.13;;
11211;SDS011;5663;50.864;12.096;2023-04-25T04:27:17;10.47;;;5.87;;
11211;SDS011;5663;50.864;12.096;2023-04-25T04:29:48;11.17;;;7.63;;
11211;SDS011;5663;50.864;12.096;2023-04-25T04:32:19;14.03;;;10.23;;
11211;SDS011;5663;50.864;12.096;2023-04-25T04:34:49;14.47;;;9.17;;
11211;SDS011;5663;50.864;12.096;2023-04-25T04:37:17;12.17;;;8.67;;
11211;SDS011;5663;50.864;12.096;2023-04-25T04:39:45;11.83;;;7.40;;
11211;SDS011;5663;50.864;12.096;2023-04-25T04:42:13;12.73;;;9.63;;
11211;SDS011;5663;50.864;12.096;2023-04-25T04:44:41;11.03;;;7.90;;
11211;SDS011;5663;50.864;12.096;2023-04-25T04:50:16;13.80;;;8.63;;
11211;SDS011;5663;50.864;12.096;2023-04-25T04:53:15;12.80;;;8.30;;
11211;SDS011;5663;50.864;12.096;2023-04-25T04:55:43;11.57;;;8.67;;
11211;SDS011;5663;50.864;12.096;2023-04-25T04:58:11;9.43;;;6.80;;
11211;SDS011;5663;50.864;12.096;2023-04-25T05:00:39;10.57;;;7.37;;
11211;SDS011;5663;50.864;12.096;2023-04-25T05:03:09;11.90;;;7.60;;
11211;SDS011;5663;50.864;12.096;2023-04-25T05:05:37;18.13;;;7.43;;
11211;SDS011;5663;50.864;12.096;2023-04-25T05:08:06;12.30;;;8.07;;
11211;SDS011;5663;50.864;12.096;2023-04-25T05:10:34;12.30;;;7.40;;
11211;SDS011;5663;50.864;12.096;2023-04-25T05:13:01;10.90;;;7.30;;
11211;SDS011;5663;50.864;12.096;2023-04-25T05:15:30;17.40;;;7.97;;
11211;SDS011;5663;50.864;12.096;2023-04-25T05:17:58;8.67;;;6.80;;
11211;SDS011;5663;50.864;12.096;2023-04-25T05:20:28;14.50;;;7.47;;
11211;SDS011;5663;50.864;12.096;2023-04-25T05:22:56;11.70;;;5.93;;
11211;SDS011;5663;50.864;12.096;2023-04-25T05:25:24;8.20;;;6.33;;
11211;SDS011;5663;50.864;12.096;2023-04-25T05:27:52;13.73;;;6.10;;
11211;SDS011;5663;50.864;12.096;2023-04-25T05:30:20;12.63;;;6.03;;
11211;SDS011;5663;50.864;12.096;2023-04-25T05:32:50;7.80;;;4.83;;
11211;SDS011;5663;50.864;12.096;2023-04-25T05:35:21;8.07;;;5.17;;
11211;SDS011;5663;50.864;12.096;2023-04-25T05:37:55;11.90;;;6.00;;
11211;SDS011;5663;50.864;12.096;2023-04-25T05:40:24;9.50;;;5.57;;
11211;SDS011;5663;50.864;12.096;2023-04-25T05:42:51;7.87;;;6.10;;
11211;SDS011;5663;50.864;12.096;2023-04-25T05:45:22;9.73;;;5.73;;
11211;SDS011;5663;50.864;12.096;2023-04-25T05:47:50;7.00;;;4.80;;
11211;SDS011;5663;50.864;12.096;2023-04-25T05:50:18;6.57;;;5.13;;
11211;SDS011;5663;50.864;12.096;2023-04-25T05:52:45;7.97;;;5.50;;
11211;SDS011;5663;50.864;12.096;2023-04-25T05:55:15;11.13;;;5.33;;
11211;SDS011;5663;50.864;12.096;2023-04-25T05:57:43;7.80;;;4.93;;
11211;SDS011;5663;50.864;12.096;2023-04-25T06:00:15;7.03;;;5.30;;
11211;SDS011;5663;50.864;12.096;2023-04-25T06:02:45;5.77;;;5.17;;
11211;SDS011;5663;50.864;12.096;2023-04-25T06:05:15;14.07;;;5.40;;
11211;SDS011;5663;50.864;12.096;2023-04-25T06:07:46;8.67;;;5.03;;
11211;SDS011;5663;50.864;12.096;2023-04-25T06:10:21;10.30;;;5.27;;
11211;SDS011;5663;50.864;12.096;2023-04-25T06:12:51;7.87;;;4.50;;
11211;SDS011;5663;50.864;12.096;2023-04-25T06:15:20;8.53;;;4.87;;
11211;SDS011;5663;50.864;12.096;2023-04-25T06:17:48;11.10;;;5.10;;
11211;SDS011;5663;50.864;12.096;2023-04-25T06:20:17;8.40;;;5.33;;
11211;SDS011;5663;50.864;12.096;2023-04-25T06:22:49;8.67;;;5.57;;
11211;SDS011;5663;50.864;12.096;2023-04-25T06:25:19;6.63;;;5.03;;
11211;SDS011;5663;50.864;12.096;2023-04-25T06:27:49;9.27;;;4.97;;
11211;SDS011;5663;50.864;12.096;2023-04-25T06:30:18;6.33;;;5.00;;
11211;SDS011;5663;50.864;12.096;2023-04-25T06:32:51;6.70;;;4.57;;
11211;SDS011;5663;50.864;12.096;2023-04-25T06:35:19;8.13;;;5.20;;
11211;SDS011;5663;50.864;12.096;2023-04-25T06:37:48;8.80;;;4.90;;
11211;SDS011;5663;50.864;12.096;2023-04-25T06:40:22;7.20;;;4.77;;
11211;SDS011;5663;50.864;12.096;2023-04-25T06:42:50;7.30;;;4.30;;
11211;SDS011;5663;50.864;12.096;2023-04-25T06:45:18;11.63;;;5.43;;
11211;SDS011;5663;50.864;12.096;2023-04-25T06:47:45;6.50;;;3.80;;
11211;SDS011;5663;50.864;12.096;2023-04-25T06:50:13;6.53;;;4.10;;
11211;SDS011;5663;50.864;12.096;2023-04-25T06:52:41;7.40;;;4.07;;
11211;SDS011;5663;50.864;12.096;2023-04-25T06:55:09;7.87;;;3.70;;
11211;SDS011;5663;50.864;12.096;2023-04-25T06:57:38;5.13;;;3.63;;
11211;SDS011;5663;50.864;12.096;2023-04-25T07:00:06;5.97;;;3.60;;
11211;SDS011;5663;50.864;12.096;2023-04-25T07:02:35;6.73;;;3.97;;
11211;SDS011;5663;50.864;12.096;2023-04-25T07:05:03;8.47;;;4.07;;
11211;SDS011;5663;50.864;12.096;2023-04-25T07:07:31;8.27;;;3.73;;
11211;SDS011;5663;50.864;12.096;2023-04-25T07:10:00;8.37;;;4.27;;
11211;SDS011;5663;50.864;12.096;2023-04-25T07:12:29;10.23;;;4.27;;
11211;SDS011;5663;50.864;12.096;2023-04-25T07:14:58;10.80;;;4.23;;
11211;SDS011;5663;50.864;12.096;2023-04-25T07:17:32;8.33;;;3.90;;
11211;SDS011;5663;50.864;12.096;2023-04-25T07:20:00;7.63;;;3.90;;
11211;SDS011;5663;50.864;12.096;2023-04-25T07:22:29;6.43;;;3.83;;
11211;SDS011;5663;50.864;12.096;2023-04-25T07:24:58;5.87;;;3.60;;
11211;SDS011;5663;50.864;12.096;2023-04-25T07:27:26;6.20;;;4.00;;
11211;SDS011;5663;50.864;12.096;2023-04-25T07:29:59;4.70;;;3.93;;
11211;SDS011;5663;50.864;12.096;2023-04-25T07:32:33;8.53;;;3.83;;
11211;SDS011;5663;50.864;12.096;2023-04-25T07:35:15;5.03;;;4.00;;
11211;SDS011;5663;50.864;12.096;2023-04-25T07:37:48;7.77;;;4.13;;
11211;SDS011;5663;50.864;12.096;2023-04-25T07:40:27;10.70;;;4.27;;
11211;SDS011;5663;50.864;12.096;2023-04-25T07:42:59;6.67;;;3.83;;
11211;SDS011;5663;50.864;12.096;2023-04-25T07:45:47;4.40;;;3.40;;
11211;SDS011;5663;50.864;12.096;2023-04-25T07:48:16;6.20;;;3.97;;
11211;SDS011;5663;50.864;12.096;2023-04-25T07:50:45;5.97;;;4.07;;
11211;SDS011;5663;50.864;12.096;2023-04-25T07:53:12;9.27;;;4.70;;
11211;SDS011;5663;50.864;12.096;2023-04-25T07:55:40;6.87;;;4.30;;
11211;SDS011;5663;50.864;12.096;2023-04-25T07:58:09;6.73;;;4.10;;
11211;SDS011;5663;50.864;12.096;2023-04-25T08:00:38;7.23;;;3.57;;
11211;SDS011;5663;50.864;12.096;2023-04-25T08:03:09;6.63;;;3.70;;
11211;SDS011;5663;50.864;12.096;2023-04-25T08:05:37;4.80;;;3.67;;
11211;SDS011;5663;50.864;12.096;2023-04-25T08:08:05;5.47;;;3.60;;
11211;SDS011;5663;50.864;12.096;2023-04-25T08:10:37;6.77;;;3.67;;
11211;SDS011;5663;50.864;12.096;2023-04-25T08:13:06;10.13;;;4.23;;
11211;SDS011;5663;50.864;12.096;2023-04-25T08:15:35;7.13;;;3.50;;
11211;SDS011;5663;50.864;12.096;2023-04-25T08:18:04;7.53;;;4.03;;
11211;SDS011;5663;50.864;12.096;2023-04-25T08:20:33;5.57;;;3.37;;
11211;SDS011;5663;50.864;12.096;2023-04-25T08:23:01;4.20;;;3.60;;
11211;SDS011;5663;50.864;12.096;2023-04-25T08:25:29;5.37;;;3.40;;
11211;SDS011;5663;50.864;12.096;2023-04-25T08:27:56;6.20;;;3.80;;
11211;SDS011;5663;50.864;12.096;2023-04-25T08:30:25;4.20;;;3.47;;
11211;SDS011;5663;50.864;12.096;2023-04-25T08:32:54;4.27;;;3.47;;
11211;SDS011;5663;50.864;12.096;2023-04-25T08:35:22;4.50;;;3.33;;
11211;SDS011;5663;50.864;12.096;2023-04-25T08:37:53;4.97;;;3.63;;
11211;SDS011;5663;50.864;12.096;2023-04-25T08:40:23;7.07;;;3.90;;
11211;SDS011;5663;50.864;12.096;2023-04-25T08:42:57;7.73;;;4.20;;
11211;SDS011;5663;50.864;12.096;2023-04-25T08:45:31;16.37;;;4.73;;
11211;SDS011;5663;50.864;12.096;2023-04-25T08:48:01;4.80;;;3.67;;
11211;SDS011;5663;50.864;12.096;2023-04-25T08:50:31;6.47;;;4.00;;
11211;SDS011;5663;50.864;12.096;2023-04-25T08:53:02;5.73;;;3.90;;
11211;SDS011;5663;50.864;12.096;2023-04-25T08:55:33;7.43;;;4.10;;
11211;SDS011;5663;50.864;12.096;2023-04-25T08:58:02;5.70;;;4.37;;
11211;SDS011;5663;50.864;12.096;2023-04-25T09:00:33;6.00;;;4.60;;
11211;SDS011;5663;50.864;12.096;2023-04-25T09:03:11;6.50;;;4.60;;
11211;SDS011;5663;50.864;12.096;2023-04-25T09:05:46;6.93;;;4.20;;
11211;SDS011;5663;50.864;12.096;2023-04-25T09:08:19;9.93;;;5.77;;
11211;SDS011;5663;50.864;12.096;2023-04-25T09:10:53;7.67;;;5.30;;
11211;SDS011;5663;50.864;12.096;2023-04-25T09:13:24;6.07;;;4.00;;
11211;SDS011;5663;50.864;12.096;2023-04-25T09:15:54;6.77;;;4.40;;
11211;SDS011;5663;50.864;12.096;2023-04-25T09:18:24;5.37;;;3.60;;
11211;SDS011;5663;50.864;12.096;2023-04-25T09:20:56;4.97;;;3.70;;
11211;SDS011;5663;50.864;12.096;2023-04-25T09:23:39;8.27;;;3.70;;
11211;SDS011;5663;50.864;12.096;2023-04-25T09:26:08;5.43;;;3.50;;
11211;SDS011;5663;50.864;12.096;2023-04-25T09:28:36;5.57;;;3.70;;
11211;SDS011;5663;50.864;12.096;2023-04-25T09:31:10;4.93;;;3.90;;
11211;SDS011;5663;50.864;12.096;2023-04-25T09:33:40;4.60;;;3.70;;
11211;SDS011;5663;50.864;12.096;2023-04-25T09:36:16;5.40;;;3.50;;
11211;SDS011;5663;50.864;12.096;2023-04-25T09:38:49;6.23;;;4.13;;
11211;SDS011;5663;50.864;12.096;2023-04-25T09:41:23;3.73;;;3.33;;
11211;SDS011;5663;50.864;12.096;2023-04-25T09:43:56;4.30;;;3.47;;
11211;SDS011;5663;50.864;12.096;2023-04-25T09:46:23;5.63;;;4.17;;
11211;SDS011;5663;50.864;12.096;2023-04-25T09:48:51;10.97;;;4.37;;
11211;SDS011;5663;50.864;12.096;2023-04-25T09:51:19;4.83;;;4.17;;
11211;SDS011;5663;50.864;12.096;2023-04-25T09:53:53;7.27;;;3.67;;
11211;SDS011;5663;50.864;12.096;2023-04-25T09:56:31;6.67;;;4.10;;
11211;SDS011;5663;50.864;12.096;2023-04-25T09:59:12;9.97;;;4.10;;
11211;SDS011;5663;50.864;12.096;2023-04-25T10:01:43;6.10;;;4.13;;
11211;SDS011;5663;50.864;12.096;2023-04-25T10:04:18;5.67;;;4.47;;
11211;SDS011;5663;50.864;12.096;2023-04-25T10:06:54;13.93;;;3.90;;
11211;SDS011;5663;50.864;12.096;2023-04-25T10:09:27;6.33;;;4.57;;
11211;SDS011;5663;50.864;12.096;2023-04-25T10:12:01;8.60;;;4.70;;
11211;SDS011;5663;50.864;12.096;2023-04-25T10:14:44;6.27;;;4.70;;
11211;SDS011;5663;50.864;12.096;2023-04-25T10:17:18;9.27;;;5.37;;
11211;SDS011;5663;50.864;12.096;2023-04-25T10:19:47;5.10;;;4.37;;
11211;SDS011;5663;50.864;12.096;2023-04-25T10:22:17;5.57;;;4.87;;
11211;SDS011;5663;50.864;12.096;2023-04-25T10:24:59;8.43;;;4.93;;
11211;SDS011;5663;50.864;12.096;2023-04-25T10:27:29;6.97;;;4.80;;
11211;SDS011;5663;50.864;12.096;2023-04-25T10:30:00;6.03;;;4.30;;
11211;SDS011;5663;50.864;12.096;2023-04-25T10:32:30;9.70;;;4.73;;
11211;SDS011;5663;50.864;12.096;2023-04-25T10:35:09;7.70;;;4.67;;
11211;SDS011;5663;50.864;12.096;2023-04-25T10:37:56;6.90;;;4.30;;
11211;SDS011;5663;50.864;12.096;2023-04-25T10:40:27;7.43;;;4.67;;
11211;SDS011;5663;50.864;12.096;2023-04-25T10:42:55;12.70;;;5.10;;
11211;SDS011;5663;50.864;12.096;2023-04-25T10:45:52;6.13;;;4.30;;
11211;SDS011;5663;50.864;12.096;2023-04-25T10:48:25;4.83;;;3.77;;
11211;SDS011;5663;50.864;12.096;2023-04-25T10:51:06;7.10;;;4.03;;
11211;SDS011;5663;50.864;12.096;2023-04-25T10:53:37;4.80;;;4.20;;
11211;SDS011;5663;50.864;12.096;2023-04-25T10:56:12;6.63;;;3.70;;
11211;SDS011;5663;50.864;12.096;2023-04-25T10:58:44;7.53;;;3.93;;
11211;SDS011;5663;50.864;12.096;2023-04-25T11:01:13;5.77;;;3.87;;
11211;SDS011;5663;50.864;12.096;2023-04-25T11:03:42;5.80;;;4.30;;
11211;SDS011;5663;50.864;12.096;2023-04-25T11:06:18;4.20;;;3.80;;
11211;SDS011;5663;50.864;12.096;2023-04-25T11:08:50;5.03;;;3.80;;
11211;SDS011;5663;50.864;12.096;2023-04-25T11:11:20;6.57;;;3.77;;
11211;SDS011;5663;50.864;12.096;2023-04-25T11:13:49;6.60;;;4.20;;
11211;SDS011;5663;50.864;12.096;2023-04-25T11:16:18;11.63;;;3.93;;
11211;SDS011;5663;50.864;12.096;2023-04-25T11:18:49;5.23;;;3.27;;
11211;SDS011;5663;50.864;12.096;2023-04-25T11:21:20;9.30;;;4.10;;
11211;SDS011;5663;50.864;12.096;2023-04-25T11:23:49;4.53;;;3.40;;
11211;SDS011;5663;50.864;12.096;2023-04-25T11:26:24;5.90;;;3.60;;
11211;SDS011;5663;50.864;12.096;2023-04-25T11:28:56;8.83;;;3.30;;
11211;SDS011;5663;50.864;12.096;2023-04-25T11:31:26;5.37;;;2.93;;
11211;SDS011;5663;50.864;12.096;2023-04-25T11:33:53;3.53;;;2.73;;
11211;SDS011;5663;50.864;12.096;2023-04-25T11:36:23;3.93;;;2.70;;
11211;SDS011;5663;50.864;12.096;2023-04-25T11:38:53;4.60;;;2.70;;
11211;SDS011;5663;50.864;12.096;2023-04-25T11:41:22;7.97;;;3.20;;
11211;SDS011;5663;50.864;12.096;2023-04-25T11:43:52;8.87;;;2.67;;
11211;SDS011;5663;50.864;12.096;2023-04-25T11:46:20;6.10;;;3.43;;
11211;SDS011;5663;50.864;12.096;2023-04-25T11:48:48;5.40;;;3.27;;
11211;SDS011;5663;50.864;12.096;2023-04-25T11:51:17;6.43;;;3.17;;
11211;SDS011;5663;50.864;12.096;2023-04-25T11:53:47;5.47;;;3.40;;
11211;SDS011;5663;50.864;12.096;2023-04-25T11:56:15;8.57;;;4.07;;
11211;SDS011;5663;50.864;12.096;2023-04-25T11:59:02;6.83;;;4.30;;
11211;SDS011;5663;50.864;12.096;2023-04-25T12:01:35;5.33;;;3.63;;
11211;SDS011;5663;50.864;12.096;2023-04-25T12:04:11;6.03;;;3.33;;
11211;SDS011;5663;50.864;12.096;2023-04-25T12:06:40;7.53;;;3.60;;
11211;SDS011;5663;50.864;12.096;2023-04-25T12:09:15;7.87;;;3.50;;
11211;SDS011;5663;50.864;12.096;2023-04-25T12:11:48;8.47;;;3.70;;
11211;SDS011;5663;50.864;12.096;2023-04-25T12:14:24;7.57;;;3.73;;
11211;SDS011;5663;50.864;12.096;2023-04-25T12:16:55;6.87;;;3.87;;
11211;SDS011;5663;50.864;12.096;2023-04-25T12:19:24;6.23;;;3.27;;
11211;SDS011;5663;50.864;12.096;2023-04-25T12:21:55;6.73;;;3.00;;
11211;SDS011;5663;50.864;12.096;2023-04-25T12:24:25;8.63;;;3.07;;
11211;SDS011;5663;50.864;12.096;2023-04-25T12:26:58;6.63;;;3.00;;
11211;SDS011;5663;50.864;12.096;2023-04-25T12:29:31;5.80;;;3.07;;
11211;SDS011;5663;50.864;12.096;2023-04-25T12:32:01;4.83;;;2.27;;
11211;SDS011;5663;50.864;12.096;2023-04-25T12:34:31;11.83;;;4.57;;
11211;SDS011;5663;50.864;12.096;2023-04-25T12:37:02;8.87;;;3.20;;
11211;SDS011;5663;50.864;12.096;2023-04-25T12:39:32;6.30;;;2.97;;
11211;SDS011;5663;50.864;12.096;2023-04-25T12:42:02;9.17;;;3.13;;
11211;SDS011;5663;50.864;12.096;2023-04-25T12:44:32;8.23;;;2.90;;
11211;SDS011;5663;50.864;12.096;2023-04-25T12:46:59;6.60;;;3.00;;
11211;SDS011;5663;50.864;12.096;2023-04-25T12:49:29;7.57;;;2.83;;
11211;SDS011;5663;50.864;12.096;2023-04-25T12:51:56;6.40;;;2.67;;
11211;SDS011;5663;50.864;12.096;2023-04-25T12:54:24;5.60;;;2.60;;
11211;SDS011;5663;50.864;12.096;2023-04-25T12:56:54;7.17;;;2.97;;
11211;SDS011;5663;50.864;12.096;2023-04-25T12:59:24;10.87;;;4.73;;
11211;SDS011;5663;50.864;12.096;2023-04-25T13:01:54;7.50;;;2.80;;
11211;SDS011;5663;50.864;12.096;2023-04-25T13:04:23;10.90;;;3.13;;
11211;SDS011;5663;50.864;12.096;2023-04-25T13:06:54;9.37;;;2.93;;
11211;SDS011;5663;50.864;12.096;2023-04-25T13:09:23;9.73;;;3.03;;
11211;SDS011;5663;50.864;12.096;2023-04-25T13:11:52;9.87;;;3.37;;
11211;SDS011;5663;50.864;12.096;2023-04-25T13:14:19;8.00;;;3.03;;
11211;SDS011;5663;50.864;12.096;2023-04-25T13:16:47;9.87;;;2.80;;
11211;SDS011;5663;50.864;12.096;2023-04-25T13:19:20;6.03;;;2.70;;
11211;SDS011;5663;50.864;12.096;2023-04-25T13:21:49;13.07;;;2.90;;
11211;SDS011;5663;50.864;12.096;2023-04-25T13:24:16;8.00;;;2.77;;
11211;SDS011;5663;50.864;12.096;2023-04-25T13:26:44;9.60;;;3.00;;
11211;SDS011;5663;50.864;12.096;2023-04-25T13:29:12;5.77;;;2.87;;
11211;SDS011;5663;50.864;12.096;2023-04-25T13:31:39;8.73;;;3.50;;
11211;SDS011;5663;50.864;12.096;2023-04-25T13:34:07;13.90;;;3.30;;
11211;SDS011;5663;50.864;12.096;2023-04-25T13:36:40;8.63;;;3.10;;
11211;SDS011;5663;50.864;12.096;2023-04-25T13:39:07;7.23;;;3.33;;
11211;SDS011;5663;50.864;12.096;2023-04-25T13:41:37;7.10;;;3.17;;
11211;SDS011;5663;50.864;12.096;2023-04-25T13:44:08;9.47;;;2.63;;
11211;SDS011;5663;50.864;12.096;2023-04-25T13:46:46;8.83;;;2.87;;
11211;SDS011;5663;50.864;12.096;2023-04-25T13:49:15;7.60;;;2.50;;
11211;SDS011;5663;50.864;12.096;2023-04-25T13:51:46;4.53;;;2.27;;
11211;SDS011;5663;50.864;12.096;2023-04-25T13:54:14;4.70;;;2.20;;
11211;SDS011;5663;50.864;12.096;2023-04-25T13:56:44;15.33;;;3.13;;
11211;SDS011;5663;50.864;12.096;2023-04-25T13:59:13;8.13;;;2.47;;
11211;SDS011;5663;50.864;12.096;2023-04-25T14:01:41;8.40;;;2.40;;
11211;SDS011;5663;50.864;12.096;2023-04-25T14:04:09;6.73;;;2.50;;
11211;SDS011;5663;50.864;12.096;2023-04-25T14:06:38;7.83;;;2.20;;
11211;SDS011;5663;50.864;12.096;2023-04-25T14:09:10;4.17;;;2.27;;
11211;SDS011;5663;50.864;12.096;2023-04-25T14:11:40;4.13;;;1.90;;
11211;SDS011;5663;50.864;12.096;2023-04-25T14:14:07;5.63;;;2.33;;
11211;SDS011;5663;50.864;12.096;2023-04-25T14:16:35;7.03;;;2.40;;
11211;SDS011;5663;50.864;12.096;2023-04-25T14:19:14;13.97;;;2.47;;
11211;SDS011;5663;50.864;12.096;2023-04-25T14:21:42;9.77;;;2.40;;
11211;SDS011;5663;50.864;12.096;2023-04-25T14:24:11;5.80;;;2.50;;
11211;SDS011;5663;50.864;12.096;2023-04-25T14:26:40;6.47;;;2.60;;
11211;SDS011;5663;50.864;12.096;2023-04-25T14:29:11;5.10;;;2.50;;
11211;SDS011;5663;50.864;12.096;2023-04-25T14:31:39;8.60;;;2.80;;
11211;SDS011;5663;50.864;12.096;2023-04-25T14:34:07;4.40;;;2.50;;
11211;SDS011;5663;50.864;12.096;2023-04-25T14:36:35;11.37;;;2.80;;
11211;SDS011;5663;50.864;12.096;2023-04-25T14:39:06;8.00;;;2.60;;
11211;SDS011;5663;50.864;12.096;2023-04-25T14:41:36;10.27;;;2.73;;
11211;SDS011;5663;50.864;12.096;2023-04-25T14:44:04;7.57;;;2.63;;
11211;SDS011;5663;50.864;12.096;2023-04-25T14:46:33;9.93;;;2.70;;
11211;SDS011;5663;50.864;12.096;2023-04-25T14:49:01;8.80;;;2.60;;
11211;SDS011;5663;50.864;12.096;2023-04-25T14:51:30;7.03;;;2.40;;
11211;SDS011;5663;50.864;12.096;2023-04-25T14:53:58;8.07;;;2.80;;
11211;SDS011;5663;50.864;12.096;2023-04-25T14:56:27;8.30;;;2.87;;
11211;SDS011;5663;50.864;12.096;2023-04-25T14:58:56;4.87;;;2.50;;
11211;SDS011;5663;50.864;12.096;2023-04-25T15:01:24;13.37;;;2.77;;
11211;SDS011;5663;50.864;12.096;2023-04-25T15:03:52;4.37;;;2.27;;
11211;SDS011;5663;50.864;12.096;2023-04-25T15:06:20;9.23;;;2.60;;